Portada
METAR-TAF:

METAR-TAF

Aeroports :

Dakar, Senegal

latitud: 14-44N, longitud: 017-30W, altitud: 27 m

Observació

L'informe es va fer fa 43 minuts, a les 20:00 UTC
Vent 16 kt del Sud-Est
Temperatura 24°C
Humitat 94%
Pressió 1015 hPa
Visibilitat: 6000 m
Núvols disperses a una alçada de 1300 ft
pluja

METAR: GOOY 162000Z 14016KT 6000 RA SCT013 24/23 Q1015

Hora: 20:43 (20:43 UTC)

Pronòstic

L'informe es va fer fa 3 hores i 13 minuts, a les 17:30 UTC
Pronòstic vàlid del 16 a les 18 UTC al 17 a les 24 UTC
Vent 12 kt del Sud/Sud-Est
Visibilitat: 3500 m
Cel ennuvolat a una alçada de 1500 ft
Escasses núvols a una alçada de 3000 ft, Cumulonimbus.
tempesta, pluja
Evolucionant progressivament
l' 16 a les 20 UTC al 16 a les 22 UTC
Vent 10 kt del Nord-Oest
Visibilitat 10 km o més
sense núvols per sota de 1500 mi sense presència de cumulonimbus.

TAF: GOOY 161730Z 1618/1724 16012KT 3500 TSRA BKN015 FEW030CB BECMG 1620/1622 32010KT CAVOK

Observacions i pronòstics meteorològics de més de 4000 aeroports (METAR i TAF).

Les estacions disponibles són els punts grocs i vermells al mapa.

Posi el ratolí al punt desitjat per veure el nom de l'estació.

Feu clic per veure les observacions i els pronòstics meteorològics.

Per canviar el mapa: feu clic els botons verds amb una creu de color negre per apropar; al botó verd amb un guió per allunyar la imatge; o en les fletxes verdes per a mapes adjacents.


METAR-TAF: